sensor_id;sensor_type;location;lat;lon;timestamp;P1;durP1;ratioP1;P2;durP2;ratioP2
65130;SDS011;51709;54.912;8.316;2022-07-06T00:04:14;6.60;;;1.05;;
65130;SDS011;51709;54.912;8.316;2022-07-06T00:09:35;3.20;;;1.38;;
65130;SDS011;51709;54.912;8.316;2022-07-06T00:14:56;4.82;;;1.40;;
65130;SDS011;51709;54.912;8.316;2022-07-06T00:20:16;5.68;;;1.20;;
65130;SDS011;51709;54.912;8.316;2022-07-06T00:25:38;2.70;;;0.90;;
65130;SDS011;51709;54.912;8.316;2022-07-06T00:30:58;1.90;;;1.13;;
65130;SDS011;51709;54.912;8.316;2022-07-06T00:36:19;5.68;;;1.30;;
65130;SDS011;51709;54.912;8.316;2022-07-06T00:41:40;14.52;;;1.40;;
65130;SDS011;51709;54.912;8.316;2022-07-06T00:47:01;2.67;;;0.90;;
65130;SDS011;51709;54.912;8.316;2022-07-06T00:52:21;4.93;;;1.10;;
65130;SDS011;51709;54.912;8.316;2022-07-06T00:57:42;12.60;;;1.40;;
65130;SDS011;51709;54.912;8.316;2022-07-06T01:03:03;8.80;;;1.48;;
65130;SDS011;51709;54.912;8.316;2022-07-06T01:08:24;1.45;;;0.90;;
65130;SDS011;51709;54.912;8.316;2022-07-06T01:13:46;5.07;;;0.90;;
65130;SDS011;51709;54.912;8.316;2022-07-06T01:19:08;7.05;;;1.60;;
65130;SDS011;51709;54.912;8.316;2022-07-06T01:24:29;4.00;;;1.35;;
65130;SDS011;51709;54.912;8.316;2022-07-06T01:29:50;3.50;;;1.00;;
65130;SDS011;51709;54.912;8.316;2022-07-06T01:35:11;4.47;;;1.60;;
65130;SDS011;51709;54.912;8.316;2022-07-06T01:40:33;11.05;;;1.77;;
65130;SDS011;51709;54.912;8.316;2022-07-06T01:45:53;5.82;;;1.48;;
65130;SDS011;51709;54.912;8.316;2022-07-06T01:51:14;3.40;;;1.40;;
65130;SDS011;51709;54.912;8.316;2022-07-06T01:56:37;3.03;;;1.50;;
65130;SDS011;51709;54.912;8.316;2022-07-06T02:09:07;5.63;;;1.20;;
65130;SDS011;51709;54.912;8.316;2022-07-06T02:14:28;6.80;;;1.58;;
65130;SDS011;51709;54.912;8.316;2022-07-06T02:19:49;5.32;;;1.20;;
65130;SDS011;51709;54.912;8.316;2022-07-06T02:25:10;1.85;;;1.02;;
65130;SDS011;51709;54.912;8.316;2022-07-06T02:30:33;4.18;;;0.93;;
65130;SDS011;51709;54.912;8.316;2022-07-06T02:35:54;4.88;;;0.98;;
65130;SDS011;51709;54.912;8.316;2022-07-06T02:41:15;6.03;;;1.10;;
65130;SDS011;51709;54.912;8.316;2022-07-06T02:46:37;2.20;;;1.10;;
65130;SDS011;51709;54.912;8.316;2022-07-06T02:51:58;2.88;;;1.20;;
65130;SDS011;51709;54.912;8.316;2022-07-06T02:57:19;8.20;;;1.30;;
65130;SDS011;51709;54.912;8.316;2022-07-06T03:02:40;3.42;;;1.08;;
65130;SDS011;51709;54.912;8.316;2022-07-06T03:08:02;5.22;;;1.38;;
65130;SDS011;51709;54.912;8.316;2022-07-06T03:13:24;7.65;;;1.38;;
65130;SDS011;51709;54.912;8.316;2022-07-06T03:18:44;3.80;;;1.10;;
65130;SDS011;51709;54.912;8.316;2022-07-06T03:24:05;7.78;;;0.68;;
65130;SDS011;51709;54.912;8.316;2022-07-06T03:29:26;5.20;;;0.85;;
65130;SDS011;51709;54.912;8.316;2022-07-06T03:34:47;4.90;;;1.00;;
65130;SDS011;51709;54.912;8.316;2022-07-06T03:40:08;4.43;;;1.20;;
65130;SDS011;51709;54.912;8.316;2022-07-06T03:45:30;3.97;;;1.05;;
65130;SDS011;51709;54.912;8.316;2022-07-06T03:50:53;3.28;;;0.93;;
65130;SDS011;51709;54.912;8.316;2022-07-06T03:56:15;3.78;;;0.88;;
65130;SDS011;51709;54.912;8.316;2022-07-06T04:01:52;11.88;;;2.28;;
65130;SDS011;51709;54.912;8.316;2022-07-06T04:07:14;4.60;;;2.70;;
65130;SDS011;51709;54.912;8.316;2022-07-06T04:12:44;3.72;;;1.20;;
65130;SDS011;51709;54.912;8.316;2022-07-06T04:18:07;3.88;;;1.33;;
65130;SDS011;51709;54.912;8.316;2022-07-06T04:23:38;5.95;;;2.00;;
65130;SDS011;51709;54.912;8.316;2022-07-06T04:29:01;8.57;;;2.00;;
65130;SDS011;51709;54.912;8.316;2022-07-06T04:34:22;4.82;;;1.67;;
65130;SDS011;51709;54.912;8.316;2022-07-06T04:39:43;4.43;;;1.23;;
65130;SDS011;51709;54.912;8.316;2022-07-06T04:45:04;8.05;;;1.13;;
65130;SDS011;51709;54.912;8.316;2022-07-06T04:50:25;5.45;;;1.25;;
65130;SDS011;51709;54.912;8.316;2022-07-06T04:55:49;3.63;;;1.45;;
65130;SDS011;51709;54.912;8.316;2022-07-06T05:01:10;9.90;;;1.63;;
65130;SDS011;51709;54.912;8.316;2022-07-06T05:06:31;9.30;;;1.60;;
65130;SDS011;51709;54.912;8.316;2022-07-06T05:11:54;9.55;;;1.30;;
65130;SDS011;51709;54.912;8.316;2022-07-06T05:17:15;4.13;;;1.83;;
65130;SDS011;51709;54.912;8.316;2022-07-06T05:22:36;2.85;;;1.08;;
65130;SDS011;51709;54.912;8.316;2022-07-06T05:28:06;5.18;;;1.23;;
65130;SDS011;51709;54.912;8.316;2022-07-06T05:33:27;1.27;;;1.00;;
65130;SDS011;51709;54.912;8.316;2022-07-06T05:38:49;4.05;;;1.65;;
65130;SDS011;51709;54.912;8.316;2022-07-06T05:44:10;4.50;;;1.30;;
65130;SDS011;51709;54.912;8.316;2022-07-06T05:49:31;8.00;;;1.50;;
65130;SDS011;51709;54.912;8.316;2022-07-06T05:55:11;4.25;;;1.13;;
65130;SDS011;51709;54.912;8.316;2022-07-06T06:00:33;5.93;;;1.00;;
65130;SDS011;51709;54.912;8.316;2022-07-06T06:05:59;5.07;;;1.38;;
65130;SDS011;51709;54.912;8.316;2022-07-06T06:11:21;10.50;;;1.45;;
65130;SDS011;51709;54.912;8.316;2022-07-06T06:16:42;6.35;;;1.25;;
65130;SDS011;51709;54.912;8.316;2022-07-06T06:22:03;10.00;;;1.50;;
65130;SDS011;51709;54.912;8.316;2022-07-06T06:27:24;5.65;;;1.30;;
65130;SDS011;51709;54.912;8.316;2022-07-06T06:32:44;3.05;;;1.02;;
65130;SDS011;51709;54.912;8.316;2022-07-06T06:38:06;3.92;;;0.95;;
65130;SDS011;51709;54.912;8.316;2022-07-06T06:43:26;6.40;;;1.65;;
65130;SDS011;51709;54.912;8.316;2022-07-06T06:48:53;6.18;;;1.30;;
65130;SDS011;51709;54.912;8.316;2022-07-06T06:54:14;1.67;;;1.00;;
65130;SDS011;51709;54.912;8.316;2022-07-06T06:59:34;3.03;;;1.23;;
65130;SDS011;51709;54.912;8.316;2022-07-06T07:04:55;3.45;;;1.10;;
65130;SDS011;51709;54.912;8.316;2022-07-06T07:10:16;3.58;;;1.30;;
65130;SDS011;51709;54.912;8.316;2022-07-06T07:15:37;3.30;;;1.00;;
65130;SDS011;51709;54.912;8.316;2022-07-06T07:20:57;4.90;;;1.40;;
65130;SDS011;51709;54.912;8.316;2022-07-06T07:26:18;3.53;;;1.08;;
65130;SDS011;51709;54.912;8.316;2022-07-06T07:31:39;2.10;;;1.05;;
65130;SDS011;51709;54.912;8.316;2022-07-06T07:36:59;7.70;;;1.20;;
65130;SDS011;51709;54.912;8.316;2022-07-06T07:42:20;5.57;;;1.73;;
65130;SDS011;51709;54.912;8.316;2022-07-06T07:47:40;4.90;;;1.00;;
65130;SDS011;51709;54.912;8.316;2022-07-06T07:53:01;7.38;;;1.30;;
65130;SDS011;51709;54.912;8.316;2022-07-06T07:58:22;1.88;;;0.85;;
65130;SDS011;51709;54.912;8.316;2022-07-06T08:03:43;5.10;;;2.13;;
65130;SDS011;51709;54.912;8.316;2022-07-06T08:09:04;9.18;;;1.33;;
65130;SDS011;51709;54.912;8.316;2022-07-06T08:14:27;9.48;;;1.27;;
65130;SDS011;51709;54.912;8.316;2022-07-06T08:19:48;3.15;;;1.20;;
65130;SDS011;51709;54.912;8.316;2022-07-06T08:25:08;4.28;;;1.60;;
65130;SDS011;51709;54.912;8.316;2022-07-06T08:30:30;7.70;;;1.60;;
65130;SDS011;51709;54.912;8.316;2022-07-06T08:35:54;10.63;;;1.80;;
65130;SDS011;51709;54.912;8.316;2022-07-06T08:41:15;4.50;;;1.30;;
65130;SDS011;51709;54.912;8.316;2022-07-06T08:46:44;7.10;;;0.93;;
65130;SDS011;51709;54.912;8.316;2022-07-06T08:52:05;5.13;;;1.40;;
65130;SDS011;51709;54.912;8.316;2022-07-06T08:57:28;2.25;;;1.25;;
65130;SDS011;51709;54.912;8.316;2022-07-06T09:10:23;6.65;;;1.60;;
65130;SDS011;51709;54.912;8.316;2022-07-06T09:15:44;1.05;;;0.95;;
65130;SDS011;51709;54.912;8.316;2022-07-06T09:21:05;3.33;;;1.52;;
65130;SDS011;51709;54.912;8.316;2022-07-06T09:26:26;1.80;;;1.10;;
65130;SDS011;51709;54.912;8.316;2022-07-06T09:31:55;3.55;;;1.27;;
65130;SDS011;51709;54.912;8.316;2022-07-06T09:37:20;3.33;;;1.45;;
65130;SDS011;51709;54.912;8.316;2022-07-06T09:42:46;4.03;;;1.17;;
65130;SDS011;51709;54.912;8.316;2022-07-06T09:48:11;4.88;;;1.30;;
65130;SDS011;51709;54.912;8.316;2022-07-06T09:53:34;3.00;;;1.02;;
65130;SDS011;51709;54.912;8.316;2022-07-06T09:58:56;6.65;;;1.45;;
65130;SDS011;51709;54.912;8.316;2022-07-06T10:04:26;1.75;;;1.10;;
65130;SDS011;51709;54.912;8.316;2022-07-06T10:09:48;2.35;;;1.17;;
65130;SDS011;51709;54.912;8.316;2022-07-06T10:15:08;7.03;;;1.45;;
65130;SDS011;51709;54.912;8.316;2022-07-06T10:20:31;4.53;;;1.42;;
65130;SDS011;51709;54.912;8.316;2022-07-06T10:25:55;7.65;;;1.38;;
65130;SDS011;51709;54.912;8.316;2022-07-06T10:31:17;5.13;;;1.37;;
65130;SDS011;51709;54.912;8.316;2022-07-06T10:36:41;1.98;;;1.08;;
65130;SDS011;51709;54.912;8.316;2022-07-06T10:42:04;2.85;;;0.88;;
65130;SDS011;51709;54.912;8.316;2022-07-06T10:47:28;2.08;;;1.13;;
65130;SDS011;51709;54.912;8.316;2022-07-06T10:52:49;1.55;;;1.17;;
65130;SDS011;51709;54.912;8.316;2022-07-06T11:09:30;5.05;;;1.33;;
65130;SDS011;51709;54.912;8.316;2022-07-06T11:14:52;1.92;;;0.85;;
65130;SDS011;51709;54.912;8.316;2022-07-06T11:20:14;8.65;;;1.13;;
65130;SDS011;51709;54.912;8.316;2022-07-06T11:25:37;0.77;;;0.77;;
65130;SDS011;51709;54.912;8.316;2022-07-06T11:30:59;5.05;;;1.50;;
65130;SDS011;51709;54.912;8.316;2022-07-06T11:36:20;5.03;;;1.25;;
65130;SDS011;51709;54.912;8.316;2022-07-06T11:41:42;7.10;;;1.63;;
65130;SDS011;51709;54.912;8.316;2022-07-06T11:47:11;4.30;;;1.38;;
65130;SDS011;51709;54.912;8.316;2022-07-06T11:52:32;2.22;;;0.90;;
65130;SDS011;51709;54.912;8.316;2022-07-06T11:57:53;5.93;;;1.10;;
65130;SDS011;51709;54.912;8.316;2022-07-06T12:03:17;3.13;;;1.25;;
65130;SDS011;51709;54.912;8.316;2022-07-06T12:08:46;8.05;;;1.15;;
65130;SDS011;51709;54.912;8.316;2022-07-06T12:14:12;4.07;;;0.93;;
65130;SDS011;51709;54.912;8.316;2022-07-06T12:19:35;7.97;;;1.08;;
65130;SDS011;51709;54.912;8.316;2022-07-06T12:24:57;2.90;;;0.98;;
65130;SDS011;51709;54.912;8.316;2022-07-06T12:30:25;11.57;;;1.52;;
65130;SDS011;51709;54.912;8.316;2022-07-06T12:35:47;2.92;;;1.10;;
65130;SDS011;51709;54.912;8.316;2022-07-06T12:41:08;3.83;;;1.63;;
65130;SDS011;51709;54.912;8.316;2022-07-06T12:46:30;4.13;;;0.82;;
65130;SDS011;51709;54.912;8.316;2022-07-06T12:57:23;1.25;;;0.88;;
65130;SDS011;51709;54.912;8.316;2022-07-06T13:02:47;8.52;;;1.15;;
65130;SDS011;51709;54.912;8.316;2022-07-06T13:08:27;7.05;;;1.20;;
65130;SDS011;51709;54.912;8.316;2022-07-06T13:13:48;2.08;;;1.10;;
65130;SDS011;51709;54.912;8.316;2022-07-06T13:19:08;5.97;;;1.20;;
65130;SDS011;51709;54.912;8.316;2022-07-06T13:24:29;1.85;;;1.67;;
65130;SDS011;51709;54.912;8.316;2022-07-06T13:29:57;5.82;;;1.58;;
65130;SDS011;51709;54.912;8.316;2022-07-06T13:35:18;8.02;;;1.77;;
65130;SDS011;51709;54.912;8.316;2022-07-06T13:40:39;8.18;;;1.75;;
65130;SDS011;51709;54.912;8.316;2022-07-06T13:46:05;3.20;;;1.73;;
65130;SDS011;51709;54.912;8.316;2022-07-06T13:51:27;2.97;;;1.13;;
65130;SDS011;51709;54.912;8.316;2022-07-06T13:56:49;2.30;;;1.13;;
65130;SDS011;51709;54.912;8.316;2022-07-06T14:02:10;1.92;;;1.23;;
65130;SDS011;51709;54.912;8.316;2022-07-06T14:07:31;7.38;;;1.35;;
65130;SDS011;51709;54.912;8.316;2022-07-06T14:12:52;7.97;;;1.88;;
65130;SDS011;51709;54.912;8.316;2022-07-06T14:18:13;3.08;;;1.55;;
65130;SDS011;51709;54.912;8.316;2022-07-06T14:23:34;6.53;;;1.58;;
65130;SDS011;51709;54.912;8.316;2022-07-06T14:28:55;5.72;;;1.60;;
65130;SDS011;51709;54.912;8.316;2022-07-06T14:34:16;1.92;;;1.00;;
65130;SDS011;51709;54.912;8.316;2022-07-06T14:39:37;4.20;;;1.52;;
65130;SDS011;51709;54.912;8.316;2022-07-06T14:44:57;10.23;;;1.95;;
65130;SDS011;51709;54.912;8.316;2022-07-06T14:50:18;5.53;;;1.55;;
65130;SDS011;51709;54.912;8.316;2022-07-06T14:55:39;4.18;;;1.85;;
65130;SDS011;51709;54.912;8.316;2022-07-06T15:00:59;10.10;;;1.90;;
65130;SDS011;51709;54.912;8.316;2022-07-06T15:06:21;13.18;;;1.80;;
65130;SDS011;51709;54.912;8.316;2022-07-06T15:12:02;3.63;;;1.40;;
65130;SDS011;51709;54.912;8.316;2022-07-06T15:17:23;6.85;;;2.53;;
65130;SDS011;51709;54.912;8.316;2022-07-06T15:22:44;8.60;;;2.40;;
65130;SDS011;51709;54.912;8.316;2022-07-06T15:28:04;15.68;;;2.95;;
65130;SDS011;51709;54.912;8.316;2022-07-06T15:33:25;8.38;;;2.70;;
65130;SDS011;51709;54.912;8.316;2022-07-06T15:38:46;4.45;;;2.20;;
65130;SDS011;51709;54.912;8.316;2022-07-06T15:44:06;12.45;;;3.00;;
65130;SDS011;51709;54.912;8.316;2022-07-06T15:49:27;10.20;;;2.22;;
65130;SDS011;51709;54.912;8.316;2022-07-06T15:54:48;5.53;;;2.20;;
65130;SDS011;51709;54.912;8.316;2022-07-06T16:00:09;8.90;;;2.13;;
65130;SDS011;51709;54.912;8.316;2022-07-06T16:05:31;6.40;;;2.53;;
65130;SDS011;51709;54.912;8.316;2022-07-06T16:11:14;5.25;;;1.63;;
65130;SDS011;51709;54.912;8.316;2022-07-06T16:16:36;6.60;;;1.85;;
65130;SDS011;51709;54.912;8.316;2022-07-06T16:21:58;4.28;;;2.22;;
65130;SDS011;51709;54.912;8.316;2022-07-06T16:27:18;5.88;;;2.65;;
65130;SDS011;51709;54.912;8.316;2022-07-06T16:32:39;10.20;;;2.70;;
65130;SDS011;51709;54.912;8.316;2022-07-06T16:38:00;6.15;;;2.08;;
65130;SDS011;51709;54.912;8.316;2022-07-06T16:43:21;8.27;;;2.17;;
65130;SDS011;51709;54.912;8.316;2022-07-06T16:48:42;8.57;;;1.80;;
65130;SDS011;51709;54.912;8.316;2022-07-06T16:54:02;3.00;;;2.05;;
65130;SDS011;51709;54.912;8.316;2022-07-06T16:59:23;9.90;;;2.08;;
65130;SDS011;51709;54.912;8.316;2022-07-06T17:04:44;5.72;;;2.08;;
65130;SDS011;51709;54.912;8.316;2022-07-06T17:10:04;7.57;;;2.13;;
65130;SDS011;51709;54.912;8.316;2022-07-06T17:15:25;9.68;;;2.08;;
65130;SDS011;51709;54.912;8.316;2022-07-06T17:20:46;6.50;;;1.83;;
65130;SDS011;51709;54.912;8.316;2022-07-06T17:26:07;6.72;;;2.58;;
65130;SDS011;51709;54.912;8.316;2022-07-06T17:31:27;4.43;;;3.50;;
65130;SDS011;51709;54.912;8.316;2022-07-06T17:36:50;12.18;;;4.47;;
65130;SDS011;51709;54.912;8.316;2022-07-06T17:42:10;9.70;;;2.58;;
65130;SDS011;51709;54.912;8.316;2022-07-06T17:47:34;14.45;;;2.80;;
65130;SDS011;51709;54.912;8.316;2022-07-06T17:52:55;10.75;;;3.10;;
65130;SDS011;51709;54.912;8.316;2022-07-06T17:58:16;13.07;;;3.03;;
65130;SDS011;51709;54.912;8.316;2022-07-06T18:03:37;7.80;;;2.40;;
65130;SDS011;51709;54.912;8.316;2022-07-06T18:08:57;17.25;;;3.28;;
65130;SDS011;51709;54.912;8.316;2022-07-06T18:14:18;8.88;;;3.30;;
65130;SDS011;51709;54.912;8.316;2022-07-06T18:19:39;20.48;;;4.55;;
65130;SDS011;51709;54.912;8.316;2022-07-06T18:24:59;11.07;;;3.17;;
65130;SDS011;51709;54.912;8.316;2022-07-06T18:30:20;14.88;;;3.50;;
65130;SDS011;51709;54.912;8.316;2022-07-06T18:35:43;8.88;;;2.78;;
65130;SDS011;51709;54.912;8.316;2022-07-06T18:41:04;13.48;;;3.53;;
65130;SDS011;51709;54.912;8.316;2022-07-06T18:46:25;7.82;;;3.15;;
65130;SDS011;51709;54.912;8.316;2022-07-06T18:51:46;9.52;;;2.00;;
65130;SDS011;51709;54.912;8.316;2022-07-06T18:57:06;5.38;;;2.35;;
65130;SDS011;51709;54.912;8.316;2022-07-06T19:02:27;10.63;;;2.92;;
65130;SDS011;51709;54.912;8.316;2022-07-06T19:07:48;5.68;;;2.50;;
65130;SDS011;51709;54.912;8.316;2022-07-06T19:13:09;3.40;;;1.60;;
65130;SDS011;51709;54.912;8.316;2022-07-06T19:18:30;2.65;;;1.33;;
65130;SDS011;51709;54.912;8.316;2022-07-06T19:23:51;13.55;;;2.13;;
65130;SDS011;51709;54.912;8.316;2022-07-06T19:29:11;7.28;;;1.73;;
65130;SDS011;51709;54.912;8.316;2022-07-06T19:34:32;2.05;;;1.33;;
65130;SDS011;51709;54.912;8.316;2022-07-06T19:39:53;2.83;;;0.95;;
65130;SDS011;51709;54.912;8.316;2022-07-06T19:45:14;2.63;;;0.95;;
65130;SDS011;51709;54.912;8.316;2022-07-06T19:50:35;3.20;;;1.00;;
65130;SDS011;51709;54.912;8.316;2022-07-06T19:55:57;2.90;;;0.93;;
65130;SDS011;51709;54.912;8.316;2022-07-06T20:01:18;4.25;;;1.20;;
65130;SDS011;51709;54.912;8.316;2022-07-06T20:06:40;4.03;;;1.30;;
65130;SDS011;51709;54.912;8.316;2022-07-06T20:12:02;5.32;;;1.80;;
65130;SDS011;51709;54.912;8.316;2022-07-06T20:17:23;6.70;;;1.30;;
65130;SDS011;51709;54.912;8.316;2022-07-06T20:22:44;9.65;;;2.03;;
65130;SDS011;51709;54.912;8.316;2022-07-06T20:35:37;10.80;;;2.00;;
65130;SDS011;51709;54.912;8.316;2022-07-06T20:40:57;13.98;;;3.88;;
65130;SDS011;51709;54.912;8.316;2022-07-06T20:46:18;10.50;;;2.72;;
65130;SDS011;51709;54.912;8.316;2022-07-06T20:51:39;9.38;;;2.33;;
65130;SDS011;51709;54.912;8.316;2022-07-06T20:57:00;13.10;;;2.80;;
65130;SDS011;51709;54.912;8.316;2022-07-06T21:02:21;13.10;;;1.75;;
65130;SDS011;51709;54.912;8.316;2022-07-06T21:07:42;12.85;;;2.40;;
65130;SDS011;51709;54.912;8.316;2022-07-06T21:13:02;6.93;;;1.75;;
65130;SDS011;51709;54.912;8.316;2022-07-06T21:18:24;12.20;;;2.65;;
65130;SDS011;51709;54.912;8.316;2022-07-06T21:23:45;14.70;;;3.53;;
65130;SDS011;51709;54.912;8.316;2022-07-06T21:29:06;9.35;;;2.92;;
65130;SDS011;51709;54.912;8.316;2022-07-06T21:34:27;16.65;;;2.00;;
65130;SDS011;51709;54.912;8.316;2022-07-06T21:39:49;8.70;;;1.80;;
65130;SDS011;51709;54.912;8.316;2022-07-06T21:45:10;7.03;;;2.10;;
65130;SDS011;51709;54.912;8.316;2022-07-06T21:50:31;15.85;;;2.63;;
65130;SDS011;51709;54.912;8.316;2022-07-06T21:55:52;10.52;;;2.30;;
65130;SDS011;51709;54.912;8.316;2022-07-06T22:01:13;13.57;;;2.35;;
65130;SDS011;51709;54.912;8.316;2022-07-06T22:06:34;5.13;;;1.75;;
65130;SDS011;51709;54.912;8.316;2022-07-06T22:11:56;11.70;;;2.15;;
65130;SDS011;51709;54.912;8.316;2022-07-06T22:17:18;11.10;;;3.35;;
65130;SDS011;51709;54.912;8.316;2022-07-06T22:22:38;11.55;;;2.20;;
65130;SDS011;51709;54.912;8.316;2022-07-06T22:27:59;10.77;;;1.88;;
65130;SDS011;51709;54.912;8.316;2022-07-06T22:33:20;18.10;;;3.97;;
65130;SDS011;51709;54.912;8.316;2022-07-06T22:38:42;18.23;;;2.92;;
65130;SDS011;51709;54.912;8.316;2022-07-06T22:44:03;24.63;;;4.03;;
65130;SDS011;51709;54.912;8.316;2022-07-06T22:49:24;14.85;;;3.22;;
65130;SDS011;51709;54.912;8.316;2022-07-06T22:54:44;10.52;;;2.67;;
65130;SDS011;51709;54.912;8.316;2022-07-06T23:00:06;10.18;;;2.80;;
65130;SDS011;51709;54.912;8.316;2022-07-06T23:05:27;3.83;;;1.80;;
65130;SDS011;51709;54.912;8.316;2022-07-06T23:10:48;7.13;;;2.95;;
65130;SDS011;51709;54.912;8.316;2022-07-06T23:16:08;11.40;;;2.58;;
65130;SDS011;51709;54.912;8.316;2022-07-06T23:21:30;10.68;;;2.88;;
65130;SDS011;51709;54.912;8.316;2022-07-06T23:26:50;12.27;;;2.47;;
65130;SDS011;51709;54.912;8.316;2022-07-06T23:32:11;4.80;;;2.33;;
65130;SDS011;51709;54.912;8.316;2022-07-06T23:37:33;9.43;;;1.85;;
65130;SDS011;51709;54.912;8.316;2022-07-06T23:42:54;5.85;;;1.45;;
65130;SDS011;51709;54.912;8.316;2022-07-06T23:48:14;8.25;;;2.25;;
65130;SDS011;51709;54.912;8.316;2022-07-06T23:53:35;12.70;;;2.55;;
65130;SDS011;51709;54.912;8.316;2022-07-06T23:58:56;13.43;;;2.45;;
